PILOTS ONLINE: 608    ATC ONLINE: 122

KAVX

Catalina Airport

Location

IATA CIB
City Avalon
Country  United States
Latitude 33° 24' 17" N
Longitude 118° 24' 57" W
Elevation 1602 ft
Type Small Airport

Map

Weather

METAR
2014/09/21 19:51
KAVX 211951Z AUTO 32009KT 10SM SCT013 20/14 A3002 RMK AO2 SLP148 T02000144
TAF
No TAF available

Runways

04/22 3000 ft / 60 ft

Outbound flights

Callsign Flying to Pilot ATD/STD ETA Aircraft

Inbound flights

Callsign Flying from Pilot ATD ETA Aircraft